sensor_id;sensor_type;location;lat;lon;timestamp;pressure;altitude;pressure_sealevel;temperature;humidity
71970;BME280;59838;52.152;5.436;2023-09-08T00:00:37;101780.53;;;17.08;100.00
71970;BME280;59838;52.152;5.436;2023-09-08T00:03:04;101787.00;;;17.06;100.00
71970;BME280;59838;52.152;5.436;2023-09-08T00:05:30;101791.03;;;17.02;100.00
71970;BME280;59838;52.152;5.436;2023-09-08T00:07:57;101786.78;;;16.94;100.00
71970;BME280;59838;52.152;5.436;2023-09-08T00:10:23;101779.94;;;16.86;100.00
71970;BME280;59838;52.152;5.436;2023-09-08T00:12:49;101787.16;;;16.84;100.00
71970;BME280;59838;52.152;5.436;2023-09-08T00:15:16;101781.91;;;16.84;100.00
71970;BME280;59838;52.152;5.436;2023-09-08T00:17:42;101776.06;;;16.75;100.00
71970;BME280;59838;52.152;5.436;2023-09-08T00:20:09;101775.22;;;16.68;100.00
71970;BME280;59838;52.152;5.436;2023-09-08T00:22:37;101782.91;;;16.63;100.00
71970;BME280;59838;52.152;5.436;2023-09-08T00:25:04;101781.69;;;16.59;100.00
71970;BME280;59838;52.152;5.436;2023-09-08T00:27:31;101782.88;;;16.56;100.00
71970;BME280;59838;52.152;5.436;2023-09-08T00:29:58;101782.88;;;16.56;100.00
71970;BME280;59838;52.152;5.436;2023-09-08T00:32:25;101786.31;;;16.57;100.00
71970;BME280;59838;52.152;5.436;2023-09-08T00:34:51;101786.50;;;16.55;100.00
71970;BME280;59838;52.152;5.436;2023-09-08T00:37:18;101784.91;;;16.48;100.00
71970;BME280;59838;52.152;5.436;2023-09-08T00:39:44;101777.63;;;16.43;100.00
71970;BME280;59838;52.152;5.436;2023-09-08T00:42:11;101779.84;;;16.39;100.00
71970;BME280;59838;52.152;5.436;2023-09-08T00:44:37;101782.03;;;16.36;100.00
71970;BME280;59838;52.152;5.436;2023-09-08T00:47:04;101777.81;;;16.35;100.00
71970;BME280;59838;52.152;5.436;2023-09-08T00:49:31;101775.78;;;16.37;100.00
71970;BME280;59838;52.152;5.436;2023-09-08T00:51:57;101785.09;;;16.39;100.00
71970;BME280;59838;52.152;5.436;2023-09-08T00:54:24;101789.09;;;16.42;100.00
71970;BME280;59838;52.152;5.436;2023-09-08T00:56:57;101778.63;;;16.42;100.00
71970;BME280;59838;52.152;5.436;2023-09-08T00:59:23;101785.09;;;16.46;100.00
71970;BME280;59838;52.152;5.436;2023-09-08T01:01:51;101781.66;;;16.45;100.00
71970;BME280;59838;52.152;5.436;2023-09-08T01:04:18;101777.41;;;16.44;100.00
71970;BME280;59838;52.152;5.436;2023-09-08T01:06:45;101771.78;;;16.41;100.00
71970;BME280;59838;52.152;5.436;2023-09-08T01:09:12;101777.81;;;16.35;100.00
71970;BME280;59838;52.152;5.436;2023-09-08T01:11:39;101775.78;;;16.30;100.00
71970;BME280;59838;52.152;5.436;2023-09-08T01:14:07;101776.97;;;16.27;100.00
71970;BME280;59838;52.152;5.436;2023-09-08T01:16:34;101767.28;;;16.21;100.00
71970;BME280;59838;52.152;5.436;2023-09-08T01:19:02;101778.75;;;16.20;100.00
71970;BME280;59838;52.152;5.436;2023-09-08T01:22:29;101770.50;;;16.23;100.00
71970;BME280;59838;52.152;5.436;2023-09-08T01:27:24;101772.34;;;16.30;100.00
71970;BME280;59838;52.152;5.436;2023-09-08T01:29:53;101771.13;;;16.32;100.00
71970;BME280;59838;52.152;5.436;2023-09-08T01:32:20;101776.38;;;16.32;100.00
71970;BME280;59838;52.152;5.436;2023-09-08T01:34:46;101782.44;;;16.33;100.00
71970;BME280;59838;52.152;5.436;2023-09-08T01:37:13;101776.75;;;16.29;100.00
71970;BME280;59838;52.152;5.436;2023-09-08T01:39:40;101772.94;;;16.25;100.00
71970;BME280;59838;52.152;5.436;2023-09-08T01:42:06;101769.47;;;16.18;100.00
71970;BME280;59838;52.152;5.436;2023-09-08T01:44:32;101781.56;;;16.12;100.00
71970;BME280;59838;52.152;5.436;2023-09-08T01:46:59;101782.16;;;16.07;100.00
71970;BME280;59838;52.152;5.436;2023-09-08T01:49:25;101781.94;;;16.02;100.00
71970;BME280;59838;52.152;5.436;2023-09-08T01:51:52;101776.28;;;15.99;100.00
71970;BME280;59838;52.152;5.436;2023-09-08T01:54:19;101780.47;;;15.93;100.00
71970;BME280;59838;52.152;5.436;2023-09-08T01:56:45;101776.41;;;15.90;100.00
71970;BME280;59838;52.152;5.436;2023-09-08T01:59:12;101771.13;;;15.84;100.00
71970;BME280;59838;52.152;5.436;2023-09-08T02:01:38;101766.69;;;15.78;100.00
71970;BME280;59838;52.152;5.436;2023-09-08T02:04:06;101770.06;;;15.71;100.00
71970;BME280;59838;52.152;5.436;2023-09-08T02:06:32;101774.06;;;15.67;100.00
71970;BME280;59838;52.152;5.436;2023-09-08T02:08:59;101770.03;;;15.65;100.00
71970;BME280;59838;52.152;5.436;2023-09-08T02:11:25;101777.88;;;15.65;100.00
71970;BME280;59838;52.152;5.436;2023-09-08T02:13:52;101771.03;;;15.64;100.00
71970;BME280;59838;52.152;5.436;2023-09-08T02:16:20;101775.47;;;15.63;100.00
71970;BME280;59838;52.152;5.436;2023-09-08T02:18:46;101768.19;;;15.59;100.00
71970;BME280;59838;52.152;5.436;2023-09-08T02:21:13;101771.97;;;15.56;100.00
71970;BME280;59838;52.152;5.436;2023-09-08T02:23:39;101770.56;;;15.53;100.00
71970;BME280;59838;52.152;5.436;2023-09-08T02:26:06;101762.69;;;15.47;100.00
71970;BME280;59838;52.152;5.436;2023-09-08T02:28:32;101761.84;;;15.46;100.00
71970;BME280;59838;52.152;5.436;2023-09-08T02:30:59;101769.69;;;15.46;100.00
71970;BME280;59838;52.152;5.436;2023-09-08T02:33:25;101765.00;;;15.35;100.00
71970;BME280;59838;52.152;5.436;2023-09-08T02:35:52;101763.59;;;15.32;100.00
71970;BME280;59838;52.152;5.436;2023-09-08T02:38:19;101766.38;;;15.31;100.00
71970;BME280;59838;52.152;5.436;2023-09-08T02:40:45;101764.75;;;15.30;100.00
71970;BME280;59838;52.152;5.436;2023-09-08T02:43:12;101761.53;;;15.28;100.00
71970;BME280;59838;52.152;5.436;2023-09-08T02:45:38;101760.28;;;15.24;100.00
71970;BME280;59838;52.152;5.436;2023-09-08T02:48:05;101769.09;;;15.16;100.00
71970;BME280;59838;52.152;5.436;2023-09-08T02:50:31;101769.09;;;15.16;100.00
71970;BME280;59838;52.152;5.436;2023-09-08T02:52:58;101761.00;;;15.11;100.00
71970;BME280;59838;52.152;5.436;2023-09-08T02:55:24;101768.22;;;15.09;100.00
71970;BME280;59838;52.152;5.436;2023-09-08T02:57:51;101774.44;;;15.08;100.00
71970;BME280;59838;52.152;5.436;2023-09-08T03:00:18;101771.03;;;15.07;100.00
71970;BME280;59838;52.152;5.436;2023-09-08T03:02:44;101765.81;;;15.07;100.00
71970;BME280;59838;52.152;5.436;2023-09-08T03:05:11;101772.84;;;15.07;100.00
71970;BME280;59838;52.152;5.436;2023-09-08T03:07:38;101772.66;;;15.08;100.00
71970;BME280;59838;52.152;5.436;2023-09-08T03:10:06;101770.84;;;15.09;100.00
71970;BME280;59838;52.152;5.436;2023-09-08T03:12:32;101772.63;;;15.02;100.00
71970;BME280;59838;52.152;5.436;2023-09-08T03:15:01;101773.38;;;14.95;100.00
71970;BME280;59838;52.152;5.436;2023-09-08T03:17:27;101771.91;;;14.93;100.00
71970;BME280;59838;52.152;5.436;2023-09-08T03:19:54;101765.09;;;14.92;100.00
71970;BME280;59838;52.152;5.436;2023-09-08T03:22:20;101770.88;;;14.87;100.00
71970;BME280;59838;52.152;5.436;2023-09-08T03:24:47;101768.75;;;14.76;100.00
71970;BME280;59838;52.152;5.436;2023-09-08T03:27:13;101758.69;;;14.73;100.00
71970;BME280;59838;52.152;5.436;2023-09-08T03:29:40;101760.91;;;14.76;100.00
71970;BME280;59838;52.152;5.436;2023-09-08T03:32:06;101756.91;;;14.80;100.00
71970;BME280;59838;52.152;5.436;2023-09-08T03:34:33;101755.94;;;14.81;100.00
71970;BME280;59838;52.152;5.436;2023-09-08T03:37:00;101754.53;;;14.85;100.00
71970;BME280;59838;52.152;5.436;2023-09-08T03:39:26;101756.41;;;14.91;100.00
71970;BME280;59838;52.152;5.436;2023-09-08T03:41:53;101748.38;;;14.93;100.00
71970;BME280;59838;52.152;5.436;2023-09-08T03:44:19;101751.00;;;14.93;100.00
71970;BME280;59838;52.152;5.436;2023-09-08T03:46:46;101752.44;;;14.95;100.00
71970;BME280;59838;52.152;5.436;2023-09-08T03:49:12;101758.09;;;14.99;100.00
71970;BME280;59838;52.152;5.436;2023-09-08T03:51:39;101750.84;;;15.01;100.00
71970;BME280;59838;52.152;5.436;2023-09-08T03:54:06;101752.84;;;14.99;100.00
71970;BME280;59838;52.152;5.436;2023-09-08T03:56:32;101744.41;;;14.97;100.00
71970;BME280;59838;52.152;5.436;2023-09-08T03:58:58;101748.59;;;14.98;100.00
71970;BME280;59838;52.152;5.436;2023-09-08T04:01:25;101750.66;;;15.03;100.00
71970;BME280;59838;52.152;5.436;2023-09-08T04:03:51;101737.34;;;14.97;100.00
71970;BME280;59838;52.152;5.436;2023-09-08T04:06:18;101733.78;;;14.84;100.00
71970;BME280;59838;52.152;5.436;2023-09-08T04:08:44;101737.13;;;14.71;100.00
71970;BME280;59838;52.152;5.436;2023-09-08T04:11:11;101741.72;;;14.69;100.00
71970;BME280;59838;52.152;5.436;2023-09-08T04:13:37;101736.13;;;14.72;100.00
71970;BME280;59838;52.152;5.436;2023-09-08T04:16:04;101730.50;;;14.75;100.00
71970;BME280;59838;52.152;5.436;2023-09-08T04:18:31;101737.19;;;14.77;100.00
71970;BME280;59838;52.152;5.436;2023-09-08T04:20:57;101737.44;;;14.83;100.00
71970;BME280;59838;52.152;5.436;2023-09-08T04:23:24;101739.25;;;14.82;100.00
71970;BME280;59838;52.152;5.436;2023-09-08T04:25:50;101739.03;;;14.84;100.00
71970;BME280;59838;52.152;5.436;2023-09-08T04:28:17;101744.72;;;14.87;100.00
71970;BME280;59838;52.152;5.436;2023-09-08T04:30:43;101743.69;;;14.88;100.00
71970;BME280;59838;52.152;5.436;2023-09-08T04:33:10;101739.31;;;14.89;100.00
71970;BME280;59838;52.152;5.436;2023-09-08T04:35:36;101739.31;;;14.89;100.00
71970;BME280;59838;52.152;5.436;2023-09-08T04:38:03;101739.47;;;14.87;100.00
71970;BME280;59838;52.152;5.436;2023-09-08T04:40:30;101740.03;;;14.83;100.00
71970;BME280;59838;52.152;5.436;2023-09-08T04:42:57;101742.25;;;14.79;100.00
71970;BME280;59838;52.152;5.436;2023-09-08T04:45:23;101741.16;;;14.73;100.00
71970;BME280;59838;52.152;5.436;2023-09-08T04:47:50;101744.53;;;14.67;100.00
71970;BME280;59838;52.152;5.436;2023-09-08T04:50:17;101743.28;;;14.63;100.00
71970;BME280;59838;52.152;5.436;2023-09-08T04:52:44;101737.63;;;14.59;100.00
71970;BME280;59838;52.152;5.436;2023-09-08T04:55:11;101740.59;;;14.56;100.00
71970;BME280;59838;52.152;5.436;2023-09-08T04:57:37;101737.69;;;14.51;100.00
71970;BME280;59838;52.152;5.436;2023-09-08T05:00:05;101736.47;;;14.47;100.00
71970;BME280;59838;52.152;5.436;2023-09-08T05:02:32;101738.28;;;14.47;100.00
71970;BME280;59838;52.152;5.436;2023-09-08T05:04:59;101742.69;;;14.46;100.00
71970;BME280;59838;52.152;5.436;2023-09-08T05:07:26;101741.81;;;14.39;100.00
71970;BME280;59838;52.152;5.436;2023-09-08T05:09:52;101749.47;;;14.40;100.00
71970;BME280;59838;52.152;5.436;2023-09-08T05:12:22;101741.28;;;14.43;100.00
71970;BME280;59838;52.152;5.436;2023-09-08T05:14:49;101737.63;;;14.44;100.00
71970;BME280;59838;52.152;5.436;2023-09-08T05:17:23;101748.81;;;14.53;100.00
71970;BME280;59838;52.152;5.436;2023-09-08T05:19:49;101743.16;;;14.71;100.00
71970;BME280;59838;52.152;5.436;2023-09-08T05:22:17;101742.06;;;15.09;100.00
71970;BME280;59838;52.152;5.436;2023-09-08T05:24:43;101744.28;;;15.75;100.00
71970;BME280;59838;52.152;5.436;2023-09-08T05:27:10;101738.91;;;16.58;100.00
71970;BME280;59838;52.152;5.436;2023-09-08T05:29:36;101735.47;;;17.38;100.00
71970;BME280;59838;52.152;5.436;2023-09-08T05:32:03;101732.59;;;18.12;100.00
71970;BME280;59838;52.152;5.436;2023-09-08T05:34:29;101735.56;;;18.86;100.00
71970;BME280;59838;52.152;5.436;2023-09-08T05:36:56;101744.19;;;19.36;100.00
71970;BME280;59838;52.152;5.436;2023-09-08T05:39:22;101745.78;;;20.23;96.01
71970;BME280;59838;52.152;5.436;2023-09-08T05:41:49;101745.13;;;20.94;91.09
71970;BME280;59838;52.152;5.436;2023-09-08T05:44:15;101743.03;;;21.55;86.79
71970;BME280;59838;52.152;5.436;2023-09-08T05:46:42;101753.03;;;21.53;83.67
71970;BME280;59838;52.152;5.436;2023-09-08T05:49:08;101753.38;;;20.86;84.80
71970;BME280;59838;52.152;5.436;2023-09-08T05:51:36;101749.97;;;19.82;90.66
71970;BME280;59838;52.152;5.436;2023-09-08T05:54:02;101758.69;;;19.02;94.90
71970;BME280;59838;52.152;5.436;2023-09-08T05:56:34;101754.38;;;18.82;98.08
71970;BME280;59838;52.152;5.436;2023-09-08T05:59:00;101759.94;;;18.99;99.02
71970;BME280;59838;52.152;5.436;2023-09-08T06:01:31;101757.72;;;18.96;98.31
71970;BME280;59838;52.152;5.436;2023-09-08T06:03:58;101766.41;;;18.72;99.83
71970;BME280;59838;52.152;5.436;2023-09-08T06:06:25;101764.44;;;18.60;100.00
71970;BME280;59838;52.152;5.436;2023-09-08T06:08:51;101768.56;;;18.50;100.00
71970;BME280;59838;52.152;5.436;2023-09-08T06:11:18;101763.81;;;18.33;100.00
71970;BME280;59838;52.152;5.436;2023-09-08T06:13:44;101769.84;;;18.40;100.00
71970;BME280;59838;52.152;5.436;2023-09-08T06:16:11;101766.13;;;18.48;100.00
71970;BME280;59838;52.152;5.436;2023-09-08T06:18:38;101765.69;;;18.58;100.00
71970;BME280;59838;52.152;5.436;2023-09-08T06:21:07;101768.88;;;18.67;100.00
71970;BME280;59838;52.152;5.436;2023-09-08T06:23:34;101772.78;;;18.89;100.00
71970;BME280;59838;52.152;5.436;2023-09-08T06:26:03;101773.66;;;19.27;100.00
71970;BME280;59838;52.152;5.436;2023-09-08T06:28:30;101772.16;;;19.93;99.15
71970;BME280;59838;52.152;5.436;2023-09-08T06:30:56;101763.31;;;20.60;95.27
71970;BME280;59838;52.152;5.436;2023-09-08T06:33:23;101764.31;;;21.36;92.18
71970;BME280;59838;52.152;5.436;2023-09-08T06:35:50;101759.50;;;22.77;85.33
71970;BME280;59838;52.152;5.436;2023-09-08T06:38:16;101767.19;;;23.79;79.81
71970;BME280;59838;52.152;5.436;2023-09-08T06:40:43;101769.59;;;24.95;74.72
71970;BME280;59838;52.152;5.436;2023-09-08T06:43:09;101767.13;;;26.30;68.62
71970;BME280;59838;52.152;5.436;2023-09-08T06:45:39;101767.78;;;27.39;64.24
71970;BME280;59838;52.152;5.436;2023-09-08T06:48:06;101767.13;;;28.12;60.98
71970;BME280;59838;52.152;5.436;2023-09-08T06:50:33;101767.00;;;28.62;58.29
71970;BME280;59838;52.152;5.436;2023-09-08T06:52:59;101774.75;;;29.12;56.69
71970;BME280;59838;52.152;5.436;2023-09-08T06:55:26;101778.56;;;29.54;55.18
71970;BME280;59838;52.152;5.436;2023-09-08T06:57:53;101774.81;;;29.55;54.34
71970;BME280;59838;52.152;5.436;2023-09-08T07:00:19;101771.44;;;29.87;53.99
71970;BME280;59838;52.152;5.436;2023-09-08T07:02:46;101769.41;;;30.31;52.56
71970;BME280;59838;52.152;5.436;2023-09-08T07:05:18;101770.69;;;30.34;52.64
71970;BME280;59838;52.152;5.436;2023-09-08T07:07:44;101772.28;;;30.35;52.47
71970;BME280;59838;52.152;5.436;2023-09-08T07:10:11;101772.97;;;30.59;50.91
71970;BME280;59838;52.152;5.436;2023-09-08T07:12:38;101768.22;;;30.70;51.24
71970;BME280;59838;52.152;5.436;2023-09-08T07:15:05;101780.31;;;30.54;51.19
71970;BME280;59838;52.152;5.436;2023-09-08T07:17:32;101777.44;;;30.92;50.30
71970;BME280;59838;52.152;5.436;2023-09-08T07:19:58;101776.69;;;31.19;49.58
71970;BME280;59838;52.152;5.436;2023-09-08T07:22:25;101776.19;;;31.17;50.40
71970;BME280;59838;52.152;5.436;2023-09-08T07:24:51;101771.88;;;30.74;50.99
71970;BME280;59838;52.152;5.436;2023-09-08T07:27:18;101780.03;;;30.69;51.25
71970;BME280;59838;52.152;5.436;2023-09-08T07:29:46;101780.31;;;30.68;50.47
71970;BME280;59838;52.152;5.436;2023-09-08T07:32:14;101780.84;;;30.70;51.27
71970;BME280;59838;52.152;5.436;2023-09-08T07:34:40;101788.94;;;30.51;50.96
71970;BME280;59838;52.152;5.436;2023-09-08T07:37:07;101779.19;;;30.55;50.77
71970;BME280;59838;52.152;5.436;2023-09-08T07:39:33;101789.81;;;30.46;50.89
71970;BME280;59838;52.152;5.436;2023-09-08T07:42:02;101779.34;;;31.05;49.91
71970;BME280;59838;52.152;5.436;2023-09-08T07:44:29;101786.47;;;31.51;49.03
71970;BME280;59838;52.152;5.436;2023-09-08T07:46:55;101783.91;;;31.46;48.59
71970;BME280;59838;52.152;5.436;2023-09-08T07:49:23;101785.38;;;30.69;49.40
71970;BME280;59838;52.152;5.436;2023-09-08T07:51:49;101788.56;;;29.00;55.77
71970;BME280;59838;52.152;5.436;2023-09-08T07:54:16;101785.94;;;27.97;58.52
71970;BME280;59838;52.152;5.436;2023-09-08T07:56:45;101785.97;;;27.16;60.94
71970;BME280;59838;52.152;5.436;2023-09-08T07:59:12;101784.44;;;26.17;64.78
71970;BME280;59838;52.152;5.436;2023-09-08T08:01:38;101775.84;;;25.95;66.09
71970;BME280;59838;52.152;5.436;2023-09-08T08:04:05;101782.50;;;25.92;67.18
71970;BME280;59838;52.152;5.436;2023-09-08T08:06:32;101773.97;;;25.85;68.94
71970;BME280;59838;52.152;5.436;2023-09-08T08:08:59;101780.38;;;25.84;68.42
71970;BME280;59838;52.152;5.436;2023-09-08T08:11:28;101774.47;;;25.82;70.68
71970;BME280;59838;52.152;5.436;2023-09-08T08:13:54;101778.72;;;25.67;72.32
71970;BME280;59838;52.152;5.436;2023-09-08T08:16:23;101784.56;;;25.64;71.23
71970;BME280;59838;52.152;5.436;2023-09-08T08:18:50;101784.06;;;25.72;70.89
71970;BME280;59838;52.152;5.436;2023-09-08T08:21:16;101784.56;;;25.64;72.04
71970;BME280;59838;52.152;5.436;2023-09-08T08:23:43;101779.00;;;25.76;71.99
71970;BME280;59838;52.152;5.436;2023-09-08T08:26:09;101782.47;;;25.82;70.18
71970;BME280;59838;52.152;5.436;2023-09-08T08:28:36;101774.75;;;25.75;72.91
71970;BME280;59838;52.152;5.436;2023-09-08T08:31:03;101771.03;;;25.76;70.99
71970;BME280;59838;52.152;5.436;2023-09-08T08:33:30;101764.09;;;25.80;71.32
71970;BME280;59838;52.152;5.436;2023-09-08T08:35:58;101763.63;;;25.88;71.96
71970;BME280;59838;52.152;5.436;2023-09-08T08:38:24;101766.06;;;26.00;71.84
71970;BME280;59838;52.152;5.436;2023-09-08T08:40:51;101763.56;;;25.83;73.04
71970;BME280;59838;52.152;5.436;2023-09-08T08:43:17;101766.84;;;26.01;72.90
71970;BME280;59838;52.152;5.436;2023-09-08T08:45:46;101763.94;;;26.18;72.62
71970;BME280;59838;52.152;5.436;2023-09-08T08:48:13;101766.59;;;26.07;72.19
71970;BME280;59838;52.152;5.436;2023-09-08T08:50:41;101763.13;;;26.07;71.17
71970;BME280;59838;52.152;5.436;2023-09-08T08:53:08;101769.47;;;25.96;72.53
71970;BME280;59838;52.152;5.436;2023-09-08T08:55:35;101766.63;;;26.18;72.87
71970;BME280;59838;52.152;5.436;2023-09-08T08:58:05;101768.47;;;26.33;70.89
71970;BME280;59838;52.152;5.436;2023-09-08T09:00:35;101777.00;;;26.40;72.34
71970;BME280;59838;52.152;5.436;2023-09-08T09:03:05;101773.00;;;26.58;71.59
71970;BME280;59838;52.152;5.436;2023-09-08T09:05:41;101760.50;;;26.53;72.25
71970;BME280;59838;52.152;5.436;2023-09-08T09:08:13;101766.34;;;26.55;72.54
71970;BME280;59838;52.152;5.436;2023-09-08T09:10:41;101770.34;;;26.48;72.40
71970;BME280;59838;52.152;5.436;2023-09-08T09:13:07;101766.06;;;26.57;73.54
71970;BME280;59838;52.152;5.436;2023-09-08T09:15:33;101770.09;;;26.75;71.83
71970;BME280;59838;52.152;5.436;2023-09-08T09:18:07;101763.13;;;26.63;71.88
71970;BME280;59838;52.152;5.436;2023-09-08T09:20:34;101769.81;;;26.76;71.73
71970;BME280;59838;52.152;5.436;2023-09-08T09:23:01;101773.00;;;26.94;71.14
71970;BME280;59838;52.152;5.436;2023-09-08T09:25:30;101767.88;;;27.08;71.18
71970;BME280;59838;52.152;5.436;2023-09-08T09:27:58;101765.16;;;27.23;72.13
71970;BME280;59838;52.152;5.436;2023-09-08T09:30:26;101766.78;;;27.14;70.12
71970;BME280;59838;52.152;5.436;2023-09-08T09:33:03;101772.13;;;27.09;70.95
71970;BME280;59838;52.152;5.436;2023-09-08T09:35:51;101767.03;;;27.17;71.98
71970;BME280;59838;52.152;5.436;2023-09-08T09:38:21;101770.75;;;27.32;71.16
71970;BME280;59838;52.152;5.436;2023-09-08T09:40:48;101773.38;;;27.42;68.00
71970;BME280;59838;52.152;5.436;2023-09-08T09:43:16;101773.09;;;27.49;72.37
71970;BME280;59838;52.152;5.436;2023-09-08T09:45:43;101767.94;;;27.63;69.84
71970;BME280;59838;52.152;5.436;2023-09-08T09:48:10;101767.94;;;27.63;68.38
71970;BME280;59838;52.152;5.436;2023-09-08T09:50:40;101770.38;;;27.59;70.54
71970;BME280;59838;52.152;5.436;2023-09-08T09:53:12;101762.56;;;27.68;67.57
71970;BME280;59838;52.152;5.436;2023-09-08T09:55:40;101762.53;;;27.78;70.65
71970;BME280;59838;52.152;5.436;2023-09-08T09:58:08;101761.50;;;27.69;70.88
71970;BME280;59838;52.152;5.436;2023-09-08T10:00:38;101762.53;;;27.73;71.15
71970;BME280;59838;52.152;5.436;2023-09-08T10:03:07;101757.13;;;27.88;69.79
71970;BME280;59838;52.152;5.436;2023-09-08T10:05:36;101761.28;;;28.05;70.27
71970;BME280;59838;52.152;5.436;2023-09-08T10:08:03;101765.63;;;28.01;67.91
71970;BME280;59838;52.152;5.436;2023-09-08T10:10:32;101758.50;;;27.81;66.96
71970;BME280;59838;52.152;5.436;2023-09-08T10:13:03;101758.00;;;27.73;70.15
71970;BME280;59838;52.152;5.436;2023-09-08T10:15:31;101761.16;;;27.81;67.74
71970;BME280;59838;52.152;5.436;2023-09-08T10:17:59;101753.69;;;27.78;70.79
71970;BME280;59838;52.152;5.436;2023-09-08T10:20:27;101750.16;;;27.87;69.29
71970;BME280;59838;52.152;5.436;2023-09-08T10:25:47;101756.72;;;28.11;67.32
71970;BME280;59838;52.152;5.436;2023-09-08T10:28:22;101761.25;;;28.10;68.19
71970;BME280;59838;52.152;5.436;2023-09-08T10:30:49;101757.00;;;28.09;69.35
71970;BME280;59838;52.152;5.436;2023-09-08T10:33:17;101752.91;;;28.22;68.23
71970;BME280;59838;52.152;5.436;2023-09-08T10:35:44;101755.66;;;28.41;69.28
71970;BME280;59838;52.152;5.436;2023-09-08T10:38:27;101755.06;;;28.49;67.90
71970;BME280;59838;52.152;5.436;2023-09-08T10:43:44;101754.28;;;28.78;64.53
71970;BME280;59838;52.152;5.436;2023-09-08T10:46:21;101749.03;;;28.68;64.59
71970;BME280;59838;52.152;5.436;2023-09-08T10:48:48;101747.09;;;28.73;63.28
71970;BME280;59838;52.152;5.436;2023-09-08T10:51:15;101749.78;;;28.97;66.32
71970;BME280;59838;52.152;5.436;2023-09-08T10:53:46;101738.78;;;28.99;64.72
71970;BME280;59838;52.152;5.436;2023-09-08T10:56:13;101739.00;;;29.03;64.40
71970;BME280;59838;52.152;5.436;2023-09-08T10:58:48;101744.47;;;29.16;64.31
71970;BME280;59838;52.152;5.436;2023-09-08T11:01:21;101743.59;;;29.26;63.27
71970;BME280;59838;52.152;5.436;2023-09-08T11:03:53;101753.66;;;29.34;64.70
71970;BME280;59838;52.152;5.436;2023-09-08T11:06:21;101745.56;;;29.40;63.16
71970;BME280;59838;52.152;5.436;2023-09-08T11:08:50;101751.25;;;29.33;64.03
71970;BME280;59838;52.152;5.436;2023-09-08T11:11:22;101753.84;;;29.19;64.17
71970;BME280;59838;52.152;5.436;2023-09-08T11:13:48;101747.00;;;29.08;62.80
71970;BME280;59838;52.152;5.436;2023-09-08T11:16:15;101740.56;;;29.09;67.08
71970;BME280;59838;52.152;5.436;2023-09-08T11:18:42;101742.22;;;29.05;64.54
71970;BME280;59838;52.152;5.436;2023-09-08T11:21:09;101744.38;;;29.27;65.85
71970;BME280;59838;52.152;5.436;2023-09-08T11:23:37;101742.19;;;29.53;63.25
71970;BME280;59838;52.152;5.436;2023-09-08T11:26:05;101747.22;;;29.73;66.33
71970;BME280;59838;52.152;5.436;2023-09-08T11:28:32;101748.38;;;29.67;63.82
71970;BME280;59838;52.152;5.436;2023-09-08T11:31:01;101744.25;;;29.75;62.33
71970;BME280;59838;52.152;5.436;2023-09-08T11:33:33;101742.06;;;29.77;62.80
71970;BME280;59838;52.152;5.436;2023-09-08T11:36:00;101745.72;;;29.86;64.16
71970;BME280;59838;52.152;5.436;2023-09-08T11:38:27;101745.91;;;30.09;61.31
71970;BME280;59838;52.152;5.436;2023-09-08T11:40:56;101749.44;;;30.23;61.50
71970;BME280;59838;52.152;5.436;2023-09-08T11:43:26;101746.16;;;30.26;61.49
71970;BME280;59838;52.152;5.436;2023-09-08T11:45:55;101745.53;;;30.16;63.01
71970;BME280;59838;52.152;5.436;2023-09-08T11:48:24;101744.25;;;30.13;62.64
71970;BME280;59838;52.152;5.436;2023-09-08T11:50:53;101741.38;;;30.23;62.83
71970;BME280;59838;52.152;5.436;2023-09-08T11:53:21;101739.50;;;30.24;64.60
71970;BME280;59838;52.152;5.436;2023-09-08T11:55:48;101741.09;;;30.25;62.38
71970;BME280;59838;52.152;5.436;2023-09-08T11:58:17;101737.91;;;30.23;61.77
71970;BME280;59838;52.152;5.436;2023-09-08T12:00:45;101743.56;;;30.21;60.50
71970;BME280;59838;52.152;5.436;2023-09-08T12:03:12;101739.50;;;30.24;60.88
71970;BME280;59838;52.152;5.436;2023-09-08T12:05:41;101736.34;;;30.36;63.09
71970;BME280;59838;52.152;5.436;2023-09-08T12:08:08;101727.56;;;30.49;60.88
71970;BME280;59838;52.152;5.436;2023-09-08T12:10:41;101730.84;;;30.74;60.37
71970;BME280;59838;52.152;5.436;2023-09-08T12:13:08;101736.22;;;30.88;59.39
71970;BME280;59838;52.152;5.436;2023-09-08T12:15:40;101735.13;;;30.89;58.89
71970;BME280;59838;52.152;5.436;2023-09-08T12:18:08;101735.94;;;31.03;58.69
71970;BME280;59838;52.152;5.436;2023-09-08T12:20:36;101736.53;;;31.00;60.86
71970;BME280;59838;52.152;5.436;2023-09-08T12:23:19;101732.44;;;31.16;58.29
71970;BME280;59838;52.152;5.436;2023-09-08T12:25:50;101737.38;;;31.37;58.86
71970;BME280;59838;52.152;5.436;2023-09-08T12:28:19;101739.56;;;31.35;57.16
71970;BME280;59838;52.152;5.436;2023-09-08T12:30:47;101729.31;;;31.37;58.97
71970;BME280;59838;52.152;5.436;2023-09-08T12:33:15;101728.13;;;31.29;58.01
71970;BME280;59838;52.152;5.436;2023-09-08T12:35:46;101725.28;;;31.26;58.45
71970;BME280;59838;52.152;5.436;2023-09-08T12:38:13;101722.88;;;31.24;55.49
71970;BME280;59838;52.152;5.436;2023-09-08T12:40:39;101731.94;;;31.28;60.76
71970;BME280;59838;52.152;5.436;2023-09-08T12:43:06;101730.91;;;31.38;59.48
71970;BME280;59838;52.152;5.436;2023-09-08T12:45:51;101724.72;;;31.51;57.01
71970;BME280;59838;52.152;5.436;2023-09-08T12:48:18;101718.63;;;31.60;57.09
71970;BME280;59838;52.152;5.436;2023-09-08T12:50:46;101723.22;;;31.59;56.78
71970;BME280;59838;52.152;5.436;2023-09-08T12:53:15;101719.13;;;31.62;57.59
71970;BME280;59838;52.152;5.436;2023-09-08T12:55:41;101716.06;;;31.55;55.82